sensor_id;sensor_type;location;lat;lon;timestamp;P1;durP1;ratioP1;P2;durP2;ratioP2
60492;SDS011;46341;51.290;-2.474;2023-02-15T00:01:47;37.15;;;27.88;;
60492;SDS011;46341;51.290;-2.474;2023-02-15T00:04:15;34.42;;;27.55;;
60492;SDS011;46341;51.290;-2.474;2023-02-15T00:06:41;38.85;;;28.27;;
60492;SDS011;46341;51.290;-2.474;2023-02-15T00:09:08;34.65;;;28.17;;
60492;SDS011;46341;51.290;-2.474;2023-02-15T00:11:35;32.10;;;26.57;;
60492;SDS011;46341;51.290;-2.474;2023-02-15T00:14:20;38.92;;;30.23;;
60492;SDS011;46341;51.290;-2.474;2023-02-15T00:16:47;35.33;;;27.65;;
60492;SDS011;46341;51.290;-2.474;2023-02-15T00:19:14;40.13;;;30.13;;
60492;SDS011;46341;51.290;-2.474;2023-02-15T00:21:40;39.70;;;29.52;;
60492;SDS011;46341;51.290;-2.474;2023-02-15T00:24:08;39.13;;;30.05;;
60492;SDS011;46341;51.290;-2.474;2023-02-15T00:26:35;39.10;;;29.25;;
60492;SDS011;46341;51.290;-2.474;2023-02-15T00:29:01;40.97;;;30.00;;
60492;SDS011;46341;51.290;-2.474;2023-02-15T00:31:30;40.03;;;29.50;;
60492;SDS011;46341;51.290;-2.474;2023-02-15T00:34:01;39.08;;;29.55;;
60492;SDS011;46341;51.290;-2.474;2023-02-15T00:36:28;41.45;;;30.15;;
60492;SDS011;46341;51.290;-2.474;2023-02-15T00:38:54;36.25;;;28.33;;
60492;SDS011;46341;51.290;-2.474;2023-02-15T00:41:20;38.80;;;29.92;;
60492;SDS011;46341;51.290;-2.474;2023-02-15T00:43:47;35.78;;;28.38;;
60492;SDS011;46341;51.290;-2.474;2023-02-15T00:46:13;38.58;;;28.77;;
60492;SDS011;46341;51.290;-2.474;2023-02-15T00:48:40;42.92;;;30.65;;
60492;SDS011;46341;51.290;-2.474;2023-02-15T00:51:06;40.20;;;30.90;;
60492;SDS011;46341;51.290;-2.474;2023-02-15T00:53:33;40.35;;;30.75;;
60492;SDS011;46341;51.290;-2.474;2023-02-15T00:55:59;40.05;;;30.30;;
60492;SDS011;46341;51.290;-2.474;2023-02-15T00:58:26;38.95;;;30.10;;
60492;SDS011;46341;51.290;-2.474;2023-02-15T01:00:52;38.47;;;29.02;;
60492;SDS011;46341;51.290;-2.474;2023-02-15T01:03:19;39.60;;;29.42;;
60492;SDS011;46341;51.290;-2.474;2023-02-15T01:05:46;42.65;;;31.80;;
60492;SDS011;46341;51.290;-2.474;2023-02-15T01:08:13;41.67;;;30.75;;
60492;SDS011;46341;51.290;-2.474;2023-02-15T01:10:40;45.20;;;33.70;;
60492;SDS011;46341;51.290;-2.474;2023-02-15T01:13:06;47.03;;;34.38;;
60492;SDS011;46341;51.290;-2.474;2023-02-15T01:15:36;41.72;;;32.20;;
60492;SDS011;46341;51.290;-2.474;2023-02-15T01:18:02;44.95;;;32.30;;
60492;SDS011;46341;51.290;-2.474;2023-02-15T01:20:29;44.88;;;33.90;;
60492;SDS011;46341;51.290;-2.474;2023-02-15T01:22:57;41.65;;;32.53;;
60492;SDS011;46341;51.290;-2.474;2023-02-15T01:25:24;41.15;;;32.25;;
60492;SDS011;46341;51.290;-2.474;2023-02-15T01:27:50;42.22;;;31.10;;
60492;SDS011;46341;51.290;-2.474;2023-02-15T01:30:17;42.38;;;33.17;;
60492;SDS011;46341;51.290;-2.474;2023-02-15T01:32:43;41.92;;;32.58;;
60492;SDS011;46341;51.290;-2.474;2023-02-15T01:35:10;40.58;;;30.88;;
60492;SDS011;46341;51.290;-2.474;2023-02-15T01:37:37;40.92;;;32.67;;
60492;SDS011;46341;51.290;-2.474;2023-02-15T01:40:06;40.63;;;31.90;;
60492;SDS011;46341;51.290;-2.474;2023-02-15T01:42:33;39.60;;;30.85;;
60492;SDS011;46341;51.290;-2.474;2023-02-15T01:45:04;40.92;;;30.55;;
60492;SDS011;46341;51.290;-2.474;2023-02-15T01:47:38;38.95;;;30.27;;
60492;SDS011;46341;51.290;-2.474;2023-02-15T01:50:39;39.90;;;30.05;;
60492;SDS011;46341;51.290;-2.474;2023-02-15T01:55:29;38.85;;;29.23;;
60492;SDS011;46341;51.290;-2.474;2023-02-15T01:57:56;37.38;;;29.25;;
60492;SDS011;46341;51.290;-2.474;2023-02-15T02:00:23;37.13;;;29.00;;
60492;SDS011;46341;51.290;-2.474;2023-02-15T02:02:50;35.67;;;28.75;;
60492;SDS011;46341;51.290;-2.474;2023-02-15T02:05:18;39.13;;;30.60;;
60492;SDS011;46341;51.290;-2.474;2023-02-15T02:07:45;39.65;;;30.30;;
60492;SDS011;46341;51.290;-2.474;2023-02-15T02:10:14;44.58;;;32.30;;
60492;SDS011;46341;51.290;-2.474;2023-02-15T02:15:07;38.30;;;28.55;;
60492;SDS011;46341;51.290;-2.474;2023-02-15T02:17:42;39.42;;;31.17;;
60492;SDS011;46341;51.290;-2.474;2023-02-15T02:26:07;40.70;;;31.50;;
60492;SDS011;46341;51.290;-2.474;2023-02-15T02:36:00;38.33;;;29.38;;
60492;SDS011;46341;51.290;-2.474;2023-02-15T02:46:04;47.50;;;35.53;;
60492;SDS011;46341;51.290;-2.474;2023-02-15T02:48:32;46.88;;;33.72;;
60492;SDS011;46341;51.290;-2.474;2023-02-15T02:50:59;45.08;;;32.80;;
60492;SDS011;46341;51.290;-2.474;2023-02-15T02:53:26;42.95;;;32.22;;
60492;SDS011;46341;51.290;-2.474;2023-02-15T02:55:54;49.85;;;36.00;;
60492;SDS011;46341;51.290;-2.474;2023-02-15T03:00:57;50.58;;;35.97;;
60492;SDS011;46341;51.290;-2.474;2023-02-15T03:03:32;53.05;;;37.00;;
60492;SDS011;46341;51.290;-2.474;2023-02-15T03:06:02;49.72;;;36.92;;
60492;SDS011;46341;51.290;-2.474;2023-02-15T03:08:32;50.13;;;35.05;;
60492;SDS011;46341;51.290;-2.474;2023-02-15T03:11:00;42.67;;;34.08;;
60492;SDS011;46341;51.290;-2.474;2023-02-15T03:13:27;43.05;;;34.15;;
60492;SDS011;46341;51.290;-2.474;2023-02-15T03:15:54;46.30;;;35.22;;
60492;SDS011;46341;51.290;-2.474;2023-02-15T03:18:44;50.67;;;37.67;;
60492;SDS011;46341;51.290;-2.474;2023-02-15T03:21:19;49.03;;;35.28;;
60492;SDS011;46341;51.290;-2.474;2023-02-15T03:23:56;47.25;;;34.17;;
60492;SDS011;46341;51.290;-2.474;2023-02-15T03:26:24;47.58;;;34.10;;
60492;SDS011;46341;51.290;-2.474;2023-02-15T03:28:51;47.70;;;34.83;;
60492;SDS011;46341;51.290;-2.474;2023-02-15T03:31:19;52.92;;;36.20;;
60492;SDS011;46341;51.290;-2.474;2023-02-15T03:33:49;52.88;;;38.22;;
60492;SDS011;46341;51.290;-2.474;2023-02-15T03:36:21;58.53;;;40.95;;
60492;SDS011;46341;51.290;-2.474;2023-02-15T03:38:51;57.53;;;40.55;;
60492;SDS011;46341;51.290;-2.474;2023-02-15T03:41:19;54.58;;;38.97;;
60492;SDS011;46341;51.290;-2.474;2023-02-15T03:43:53;54.50;;;38.92;;
60492;SDS011;46341;51.290;-2.474;2023-02-15T03:48:49;55.22;;;40.08;;
60492;SDS011;46341;51.290;-2.474;2023-02-15T03:51:18;53.17;;;38.08;;
60492;SDS011;46341;51.290;-2.474;2023-02-15T03:56:30;54.10;;;39.03;;
60492;SDS011;46341;51.290;-2.474;2023-02-15T03:58:57;53.15;;;37.55;;
60492;SDS011;46341;51.290;-2.474;2023-02-15T04:07:02;60.20;;;42.20;;
60492;SDS011;46341;51.290;-2.474;2023-02-15T04:09:28;60.28;;;42.38;;
60492;SDS011;46341;51.290;-2.474;2023-02-15T04:12:13;54.47;;;40.58;;
60492;SDS011;46341;51.290;-2.474;2023-02-15T04:14:40;52.17;;;37.78;;
60492;SDS011;46341;51.290;-2.474;2023-02-15T04:17:25;58.55;;;42.00;;
60492;SDS011;46341;51.290;-2.474;2023-02-15T04:19:51;60.75;;;42.65;;
60492;SDS011;46341;51.290;-2.474;2023-02-15T04:22:37;59.42;;;43.25;;
60492;SDS011;46341;51.290;-2.474;2023-02-15T04:25:22;66.30;;;45.65;;
60492;SDS011;46341;51.290;-2.474;2023-02-15T04:27:49;67.85;;;45.95;;
60492;SDS011;46341;51.290;-2.474;2023-02-15T04:30:17;61.78;;;45.08;;
60492;SDS011;46341;51.290;-2.474;2023-02-15T04:32:44;69.50;;;46.72;;
60492;SDS011;46341;51.290;-2.474;2023-02-15T04:35:11;65.13;;;45.72;;
60492;SDS011;46341;51.290;-2.474;2023-02-15T04:37:38;67.40;;;47.20;;
60492;SDS011;46341;51.290;-2.474;2023-02-15T04:40:05;69.60;;;47.72;;
60492;SDS011;46341;51.290;-2.474;2023-02-15T04:42:31;70.00;;;48.53;;
60492;SDS011;46341;51.290;-2.474;2023-02-15T04:44:58;64.75;;;46.42;;
60492;SDS011;46341;51.290;-2.474;2023-02-15T04:47:24;67.95;;;46.35;;
60492;SDS011;46341;51.290;-2.474;2023-02-15T04:49:51;63.83;;;46.78;;
60492;SDS011;46341;51.290;-2.474;2023-02-15T04:52:17;64.88;;;46.88;;
60492;SDS011;46341;51.290;-2.474;2023-02-15T04:54:44;65.70;;;45.92;;
60492;SDS011;46341;51.290;-2.474;2023-02-15T04:57:11;63.42;;;44.35;;
60492;SDS011;46341;51.290;-2.474;2023-02-15T04:59:37;60.42;;;44.00;;
60492;SDS011;46341;51.290;-2.474;2023-02-15T05:02:04;62.55;;;43.53;;
60492;SDS011;46341;51.290;-2.474;2023-02-15T05:04:30;65.10;;;45.08;;
60492;SDS011;46341;51.290;-2.474;2023-02-15T05:06:57;65.38;;;44.95;;
60492;SDS011;46341;51.290;-2.474;2023-02-15T05:09:23;58.28;;;42.85;;
60492;SDS011;46341;51.290;-2.474;2023-02-15T05:11:49;63.28;;;43.92;;
60492;SDS011;46341;51.290;-2.474;2023-02-15T05:14:16;61.47;;;43.75;;
60492;SDS011;46341;51.290;-2.474;2023-02-15T05:16:42;61.90;;;44.50;;
60492;SDS011;46341;51.290;-2.474;2023-02-15T05:19:09;63.38;;;43.75;;
60492;SDS011;46341;51.290;-2.474;2023-02-15T05:21:35;62.92;;;44.97;;
60492;SDS011;46341;51.290;-2.474;2023-02-15T05:24:02;58.28;;;42.33;;
60492;SDS011;46341;51.290;-2.474;2023-02-15T05:26:48;59.85;;;41.90;;
60492;SDS011;46341;51.290;-2.474;2023-02-15T05:29:33;56.70;;;39.97;;
60492;SDS011;46341;51.290;-2.474;2023-02-15T05:32:00;58.08;;;42.17;;
60492;SDS011;46341;51.290;-2.474;2023-02-15T05:34:26;59.45;;;41.55;;
60492;SDS011;46341;51.290;-2.474;2023-02-15T05:36:53;59.97;;;42.63;;
60492;SDS011;46341;51.290;-2.474;2023-02-15T05:39:19;55.47;;;40.63;;
60492;SDS011;46341;51.290;-2.474;2023-02-15T05:41:46;58.65;;;43.63;;
60492;SDS011;46341;51.290;-2.474;2023-02-15T05:44:12;63.50;;;44.72;;
60492;SDS011;46341;51.290;-2.474;2023-02-15T05:46:38;66.13;;;44.53;;
60492;SDS011;46341;51.290;-2.474;2023-02-15T05:49:05;56.05;;;40.95;;
60492;SDS011;46341;51.290;-2.474;2023-02-15T05:51:32;51.97;;;39.47;;
60492;SDS011;46341;51.290;-2.474;2023-02-15T05:53:58;57.05;;;39.90;;
60492;SDS011;46341;51.290;-2.474;2023-02-15T05:56:25;56.67;;;41.05;;
60492;SDS011;46341;51.290;-2.474;2023-02-15T05:58:52;56.72;;;40.95;;
60492;SDS011;46341;51.290;-2.474;2023-02-15T06:01:19;57.63;;;39.45;;
60492;SDS011;46341;51.290;-2.474;2023-02-15T06:03:48;64.53;;;43.47;;
60492;SDS011;46341;51.290;-2.474;2023-02-15T06:06:14;64.32;;;41.60;;
60492;SDS011;46341;51.290;-2.474;2023-02-15T06:08:41;62.53;;;43.72;;
60492;SDS011;46341;51.290;-2.474;2023-02-15T06:11:07;51.58;;;38.58;;
60492;SDS011;46341;51.290;-2.474;2023-02-15T06:13:34;52.63;;;38.55;;
60492;SDS011;46341;51.290;-2.474;2023-02-15T06:16:04;53.72;;;40.55;;
60492;SDS011;46341;51.290;-2.474;2023-02-15T06:18:31;61.57;;;42.20;;
60492;SDS011;46341;51.290;-2.474;2023-02-15T06:20:57;60.88;;;42.17;;
60492;SDS011;46341;51.290;-2.474;2023-02-15T06:23:24;57.97;;;40.97;;
60492;SDS011;46341;51.290;-2.474;2023-02-15T06:25:50;55.60;;;39.25;;
60492;SDS011;46341;51.290;-2.474;2023-02-15T06:28:16;54.22;;;39.03;;
60492;SDS011;46341;51.290;-2.474;2023-02-15T06:30:43;66.82;;;44.00;;
60492;SDS011;46341;51.290;-2.474;2023-02-15T06:33:09;63.20;;;42.88;;
60492;SDS011;46341;51.290;-2.474;2023-02-15T06:35:36;54.85;;;38.67;;
60492;SDS011;46341;51.290;-2.474;2023-02-15T06:38:02;55.03;;;39.40;;
60492;SDS011;46341;51.290;-2.474;2023-02-15T06:40:28;59.70;;;41.58;;
60492;SDS011;46341;51.290;-2.474;2023-02-15T06:42:55;57.10;;;40.30;;
60492;SDS011;46341;51.290;-2.474;2023-02-15T06:45:21;57.95;;;41.72;;
60492;SDS011;46341;51.290;-2.474;2023-02-15T06:47:47;57.97;;;40.03;;
60492;SDS011;46341;51.290;-2.474;2023-02-15T06:50:14;52.20;;;38.28;;
60492;SDS011;46341;51.290;-2.474;2023-02-15T06:52:40;60.33;;;39.75;;
60492;SDS011;46341;51.290;-2.474;2023-02-15T06:55:07;55.78;;;38.15;;
60492;SDS011;46341;51.290;-2.474;2023-02-15T06:57:33;60.47;;;39.40;;
60492;SDS011;46341;51.290;-2.474;2023-02-15T06:59:59;59.10;;;40.15;;
60492;SDS011;46341;51.290;-2.474;2023-02-15T07:02:26;57.45;;;37.22;;
60492;SDS011;46341;51.290;-2.474;2023-02-15T07:04:52;59.58;;;38.13;;
60492;SDS011;46341;51.290;-2.474;2023-02-15T07:07:19;67.82;;;42.08;;
60492;SDS011;46341;51.290;-2.474;2023-02-15T07:09:45;62.63;;;41.25;;
60492;SDS011;46341;51.290;-2.474;2023-02-15T07:12:12;56.28;;;36.72;;
60492;SDS011;46341;51.290;-2.474;2023-02-15T07:14:57;56.15;;;37.10;;
60492;SDS011;46341;51.290;-2.474;2023-02-15T07:17:24;60.13;;;38.50;;
60492;SDS011;46341;51.290;-2.474;2023-02-15T07:20:05;53.42;;;37.65;;
60492;SDS011;46341;51.290;-2.474;2023-02-15T07:22:34;60.40;;;38.30;;
60492;SDS011;46341;51.290;-2.474;2023-02-15T07:27:28;56.53;;;36.40;;
60492;SDS011;46341;51.290;-2.474;2023-02-15T07:29:54;55.20;;;36.40;;
60492;SDS011;46341;51.290;-2.474;2023-02-15T07:32:21;59.25;;;39.25;;
60492;SDS011;46341;51.290;-2.474;2023-02-15T07:34:47;59.90;;;38.97;;
60492;SDS011;46341;51.290;-2.474;2023-02-15T07:37:14;57.10;;;36.88;;
60492;SDS011;46341;51.290;-2.474;2023-02-15T07:39:40;55.13;;;36.83;;
60492;SDS011;46341;51.290;-2.474;2023-02-15T07:42:07;57.53;;;37.83;;
60492;SDS011;46341;51.290;-2.474;2023-02-15T07:44:33;55.58;;;37.88;;
60492;SDS011;46341;51.290;-2.474;2023-02-15T07:46:59;53.40;;;38.03;;
60492;SDS011;46341;51.290;-2.474;2023-02-15T07:49:26;52.30;;;38.85;;
60492;SDS011;46341;51.290;-2.474;2023-02-15T07:51:53;56.60;;;38.95;;
60492;SDS011;46341;51.290;-2.474;2023-02-15T07:54:19;57.63;;;38.08;;
60492;SDS011;46341;51.290;-2.474;2023-02-15T07:56:46;55.35;;;38.38;;
60492;SDS011;46341;51.290;-2.474;2023-02-15T07:59:12;51.70;;;37.08;;
60492;SDS011;46341;51.290;-2.474;2023-02-15T08:01:39;53.15;;;36.72;;
60492;SDS011;46341;51.290;-2.474;2023-02-15T08:04:06;50.08;;;34.65;;
60492;SDS011;46341;51.290;-2.474;2023-02-15T08:06:34;51.72;;;34.90;;
60492;SDS011;46341;51.290;-2.474;2023-02-15T08:09:02;49.43;;;35.87;;
60492;SDS011;46341;51.290;-2.474;2023-02-15T08:11:30;50.67;;;35.20;;
60492;SDS011;46341;51.290;-2.474;2023-02-15T08:14:00;44.75;;;34.25;;
60492;SDS011;46341;51.290;-2.474;2023-02-15T08:16:29;47.13;;;32.97;;
60492;SDS011;46341;51.290;-2.474;2023-02-15T08:18:57;48.72;;;32.20;;
60492;SDS011;46341;51.290;-2.474;2023-02-15T08:21:25;45.53;;;32.50;;
60492;SDS011;46341;51.290;-2.474;2023-02-15T08:26:18;43.13;;;29.13;;
60492;SDS011;46341;51.290;-2.474;2023-02-15T08:28:44;39.05;;;29.00;;
60492;SDS011;46341;51.290;-2.474;2023-02-15T08:31:13;37.92;;;27.33;;
60492;SDS011;46341;51.290;-2.474;2023-02-15T08:33:40;40.35;;;27.92;;
60492;SDS011;46341;51.290;-2.474;2023-02-15T08:36:08;37.53;;;26.95;;
60492;SDS011;46341;51.290;-2.474;2023-02-15T08:38:35;36.47;;;26.65;;
60492;SDS011;46341;51.290;-2.474;2023-02-15T08:43:37;33.42;;;25.45;;
60492;SDS011;46341;51.290;-2.474;2023-02-15T08:46:05;31.05;;;23.20;;
60492;SDS011;46341;51.290;-2.474;2023-02-15T08:48:32;28.80;;;22.15;;
60492;SDS011;46341;51.290;-2.474;2023-02-15T08:50:58;27.20;;;20.77;;
60492;SDS011;46341;51.290;-2.474;2023-02-15T08:53:25;25.23;;;19.70;;
60492;SDS011;46341;51.290;-2.474;2023-02-15T08:55:57;25.05;;;18.33;;
60492;SDS011;46341;51.290;-2.474;2023-02-15T08:58:24;28.40;;;19.02;;
60492;SDS011;46341;51.290;-2.474;2023-02-15T09:00:51;23.77;;;17.80;;
60492;SDS011;46341;51.290;-2.474;2023-02-15T09:03:17;22.73;;;16.30;;
60492;SDS011;46341;51.290;-2.474;2023-02-15T09:05:44;20.00;;;15.52;;
60492;SDS011;46341;51.290;-2.474;2023-02-15T09:08:10;20.45;;;15.10;;
60492;SDS011;46341;51.290;-2.474;2023-02-15T09:10:37;19.35;;;16.00;;
60492;SDS011;46341;51.290;-2.474;2023-02-15T09:13:03;19.92;;;15.68;;
60492;SDS011;46341;51.290;-2.474;2023-02-15T09:15:29;21.48;;;16.73;;
60492;SDS011;46341;51.290;-2.474;2023-02-15T09:17:56;17.57;;;14.47;;
60492;SDS011;46341;51.290;-2.474;2023-02-15T09:20:25;21.70;;;14.63;;
60492;SDS011;46341;51.290;-2.474;2023-02-15T09:22:51;18.85;;;14.48;;
60492;SDS011;46341;51.290;-2.474;2023-02-15T09:25:22;14.35;;;12.85;;
60492;SDS011;46341;51.290;-2.474;2023-02-15T09:27:49;14.45;;;12.23;;
60492;SDS011;46341;51.290;-2.474;2023-02-15T09:30:15;16.98;;;12.35;;
60492;SDS011;46341;51.290;-2.474;2023-02-15T09:32:42;16.20;;;12.25;;
60492;SDS011;46341;51.290;-2.474;2023-02-15T09:35:08;17.08;;;12.95;;
60492;SDS011;46341;51.290;-2.474;2023-02-15T09:37:34;14.65;;;10.32;;
60492;SDS011;46341;51.290;-2.474;2023-02-15T09:40:01;15.50;;;10.52;;
60492;SDS011;46341;51.290;-2.474;2023-02-15T09:47:58;12.80;;;9.88;;
60492;SDS011;46341;51.290;-2.474;2023-02-15T09:53:24;14.98;;;9.77;;
60492;SDS011;46341;51.290;-2.474;2023-02-15T09:56:00;13.13;;;9.30;;
60492;SDS011;46341;51.290;-2.474;2023-02-15T10:09:24;12.38;;;8.75;;
60492;SDS011;46341;51.290;-2.474;2023-02-15T10:25:24;13.27;;;8.48;;
60492;SDS011;46341;51.290;-2.474;2023-02-15T10:27:52;10.75;;;8.93;;
60492;SDS011;46341;51.290;-2.474;2023-02-15T10:33:13;11.18;;;8.40;;
60492;SDS011;46341;51.290;-2.474;2023-02-15T10:51:30;13.73;;;9.17;;
60492;SDS011;46341;51.290;-2.474;2023-02-15T11:04:20;12.20;;;8.18;;
60492;SDS011;46341;51.290;-2.474;2023-02-15T11:06:56;10.18;;;7.32;;
60492;SDS011;46341;51.290;-2.474;2023-02-15T11:09:24;11.27;;;7.88;;
60492;SDS011;46341;51.290;-2.474;2023-02-15T11:11:52;10.38;;;7.72;;
60492;SDS011;46341;51.290;-2.474;2023-02-15T11:14:21;10.80;;;7.40;;
60492;SDS011;46341;51.290;-2.474;2023-02-15T11:16:50;13.55;;;8.30;;
60492;SDS011;46341;51.290;-2.474;2023-02-15T11:19:26;12.73;;;8.48;;
60492;SDS011;46341;51.290;-2.474;2023-02-15T11:21:57;10.30;;;8.05;;
60492;SDS011;46341;51.290;-2.474;2023-02-15T11:24:26;11.23;;;7.35;;
60492;SDS011;46341;51.290;-2.474;2023-02-15T11:29:31;12.70;;;9.40;;
60492;SDS011;46341;51.290;-2.474;2023-02-15T11:32:01;17.40;;;9.45;;
60492;SDS011;46341;51.290;-2.474;2023-02-15T11:34:32;13.77;;;8.32;;
60492;SDS011;46341;51.290;-2.474;2023-02-15T11:37:01;10.27;;;8.15;;
60492;SDS011;46341;51.290;-2.474;2023-02-15T11:39:28;13.20;;;8.05;;
60492;SDS011;46341;51.290;-2.474;2023-02-15T11:49:20;10.85;;;7.35;;
60492;SDS011;46341;51.290;-2.474;2023-02-15T11:51:48;12.00;;;7.22;;
60492;SDS011;46341;51.290;-2.474;2023-02-15T11:54:17;9.75;;;7.32;;
60492;SDS011;46341;51.290;-2.474;2023-02-15T11:56:44;10.48;;;7.07;;
60492;SDS011;46341;51.290;-2.474;2023-02-15T11:59:13;9.00;;;6.47;;
60492;SDS011;46341;51.290;-2.474;2023-02-15T12:01:41;10.80;;;7.00;;
60492;SDS011;46341;51.290;-2.474;2023-02-15T12:04:17;9.18;;;6.70;;
60492;SDS011;46341;51.290;-2.474;2023-02-15T12:06:51;10.02;;;6.20;;
60492;SDS011;46341;51.290;-2.474;2023-02-15T12:09:25;13.02;;;6.57;;
60492;SDS011;46341;51.290;-2.474;2023-02-15T12:11:57;9.82;;;6.20;;
60492;SDS011;46341;51.290;-2.474;2023-02-15T12:14:48;11.05;;;6.50;;
60492;SDS011;46341;51.290;-2.474;2023-02-15T12:17:15;9.52;;;6.55;;
60492;SDS011;46341;51.290;-2.474;2023-02-15T12:19:42;8.48;;;5.93;;
60492;SDS011;46341;51.290;-2.474;2023-02-15T12:22:18;10.77;;;5.75;;
60492;SDS011;46341;51.290;-2.474;2023-02-15T12:24:46;11.15;;;6.68;;
60492;SDS011;46341;51.290;-2.474;2023-02-15T12:27:17;12.55;;;6.30;;
60492;SDS011;46341;51.290;-2.474;2023-02-15T12:29:49;9.85;;;5.93;;
60492;SDS011;46341;51.290;-2.474;2023-02-15T12:32:22;7.63;;;5.70;;
60492;SDS011;46341;51.290;-2.474;2023-02-15T12:34:50;9.98;;;6.65;;
60492;SDS011;46341;51.290;-2.474;2023-02-15T12:37:18;10.80;;;6.45;;
60492;SDS011;46341;51.290;-2.474;2023-02-15T12:39:56;9.05;;;6.13;;
60492;SDS011;46341;51.290;-2.474;2023-02-15T12:42:23;8.75;;;6.20;;
60492;SDS011;46341;51.290;-2.474;2023-02-15T12:44:57;9.65;;;6.97;;
60492;SDS011;46341;51.290;-2.474;2023-02-15T12:47:24;10.48;;;6.57;;
60492;SDS011;46341;51.290;-2.474;2023-02-15T12:50:15;9.45;;;6.32;;
60492;SDS011;46341;51.290;-2.474;2023-02-15T12:52:48;13.10;;;6.45;;
60492;SDS011;46341;51.290;-2.474;2023-02-15T12:55:25;9.00;;;6.30;;
60492;SDS011;46341;51.290;-2.474;2023-02-15T12:58:06;10.20;;;6.53;;
60492;SDS011;46341;51.290;-2.474;2023-02-15T13:00:33;13.55;;;6.65;;
60492;SDS011;46341;51.290;-2.474;2023-02-15T13:03:00;11.70;;;6.80;;
60492;SDS011;46341;51.290;-2.474;2023-02-15T13:05:30;9.65;;;6.13;;
60492;SDS011;46341;51.290;-2.474;2023-02-15T13:07:58;9.85;;;6.47;;
60492;SDS011;46341;51.290;-2.474;2023-02-15T13:10:30;8.23;;;6.25;;
60492;SDS011;46341;51.290;-2.474;2023-02-15T13:12:57;10.43;;;6.68;;
60492;SDS011;46341;51.290;-2.474;2023-02-15T13:15:25;9.30;;;6.88;;
60492;SDS011;46341;51.290;-2.474;2023-02-15T13:17:54;10.82;;;6.32;;
60492;SDS011;46341;51.290;-2.474;2023-02-15T13:20:21;8.27;;;6.15;;
60492;SDS011;46341;51.290;-2.474;2023-02-15T13:22:50;10.07;;;6.45;;
60492;SDS011;46341;51.290;-2.474;2023-02-15T13:25:19;12.02;;;6.72;;
60492;SDS011;46341;51.290;-2.474;2023-02-15T13:27:50;11.57;;;6.43;;
60492;SDS011;46341;51.290;-2.474;2023-02-15T13:30:25;9.40;;;6.47;;
60492;SDS011;46341;51.290;-2.474;2023-02-15T13:32:57;8.77;;;6.72;;
60492;SDS011;46341;51.290;-2.474;2023-02-15T13:35:24;11.93;;;7.10;;
60492;SDS011;46341;51.290;-2.474;2023-02-15T13:38:15;11.55;;;7.63;;
60492;SDS011;46341;51.290;-2.474;2023-02-15T13:43:18;12.55;;;8.45;;
60492;SDS011;46341;51.290;-2.474;2023-02-15T13:51:16;16.70;;;8.70;;
60492;SDS011;46341;51.290;-2.474;2023-02-15T13:53:59;16.30;;;9.18;;
60492;SDS011;46341;51.290;-2.474;2023-02-15T13:56:35;13.93;;;8.77;;
60492;SDS011;46341;51.290;-2.474;2023-02-15T14:01:43;15.27;;;9.00;;
60492;SDS011;46341;51.290;-2.474;2023-02-15T14:04:29;16.13;;;8.98;;
60492;SDS011;46341;51.290;-2.474;2023-02-15T14:12:27;11.82;;;8.32;;
60492;SDS011;46341;51.290;-2.474;2023-02-15T14:20:06;11.68;;;8.57;;
60492;SDS011;46341;51.290;-2.474;2023-02-15T14:22:37;14.38;;;8.77;;
60492;SDS011;46341;51.290;-2.474;2023-02-15T14:25:21;14.75;;;8.45;;
60492;SDS011;46341;51.290;-2.474;2023-02-15T14:28:00;17.42;;;9.40;;
60492;SDS011;46341;51.290;-2.474;2023-02-15T14:30:30;13.77;;;8.38;;
60492;SDS011;46341;51.290;-2.474;2023-02-15T14:33:06;14.32;;;8.75;;
60492;SDS011;46341;51.290;-2.474;2023-02-15T14:35:33;13.98;;;9.13;;
60492;SDS011;46341;51.290;-2.474;2023-02-15T14:46:03;20.42;;;9.90;;
60492;SDS011;46341;51.290;-2.474;2023-02-15T14:48:54;17.35;;;9.00;;
60492;SDS011;46341;51.290;-2.474;2023-02-15T14:54:04;18.63;;;9.80;;
60492;SDS011;46341;51.290;-2.474;2023-02-15T14:56:30;19.90;;;11.10;;
60492;SDS011;46341;51.290;-2.474;2023-02-15T14:58:58;22.50;;;11.00;;
60492;SDS011;46341;51.290;-2.474;2023-02-15T15:01:32;20.17;;;11.30;;
60492;SDS011;46341;51.290;-2.474;2023-02-15T15:04:02;28.60;;;13.55;;
60492;SDS011;46341;51.290;-2.474;2023-02-15T15:06:34;24.33;;;14.73;;
60492;SDS011;46341;51.290;-2.474;2023-02-15T15:14:53;29.73;;;19.25;;
60492;SDS011;46341;51.290;-2.474;2023-02-15T15:22:29;35.35;;;22.38;;
60492;SDS011;46341;51.290;-2.474;2023-02-15T15:35:34;5.57;;;3.83;;
60492;SDS011;46341;51.290;-2.474;2023-02-15T15:46:09;3.08;;;2.38;;
60492;SDS011;46341;51.290;-2.474;2023-02-15T15:48:37;1.63;;;1.30;;
60492;SDS011;46341;51.290;-2.474;2023-02-15T15:51:17;1.20;;;1.10;;
60492;SDS011;46341;51.290;-2.474;2023-02-15T15:53:45;1.83;;;0.90;;
60492;SDS011;46341;51.290;-2.474;2023-02-15T15:56:16;2.30;;;1.38;;
60492;SDS011;46341;51.290;-2.474;2023-02-15T15:58:44;2.60;;;1.23;;
60492;SDS011;46341;51.290;-2.474;2023-02-15T16:01:12;3.28;;;1.70;;
60492;SDS011;46341;51.290;-2.474;2023-02-15T16:04:14;2.67;;;2.20;;
60492;SDS011;46341;51.290;-2.474;2023-02-15T16:06:36;3.67;;;1.73;;
60492;SDS011;46341;51.290;-2.474;2023-02-15T16:09:09;1.77;;;1.10;;
60492;SDS011;46341;51.290;-2.474;2023-02-15T16:11:37;2.83;;;1.27;;
60492;SDS011;46341;51.290;-2.474;2023-02-15T16:14:11;2.05;;;1.13;;
60492;SDS011;46341;51.290;-2.474;2023-02-15T16:16:38;1.90;;;1.30;;
60492;SDS011;46341;51.290;-2.474;2023-02-15T16:19:05;2.28;;;1.35;;
60492;SDS011;46341;51.290;-2.474;2023-02-15T16:21:32;4.13;;;1.95;;
60492;SDS011;46341;51.290;-2.474;2023-02-15T16:29:15;2.55;;;1.60;;
60492;SDS011;46341;51.290;-2.474;2023-02-15T16:31:42;3.08;;;2.05;;
60492;SDS011;46341;51.290;-2.474;2023-02-15T16:34:09;10.55;;;4.68;;
60492;SDS011;46341;51.290;-2.474;2023-02-15T16:36:42;2.53;;;2.00;;
60492;SDS011;46341;51.290;-2.474;2023-02-15T16:39:10;2.53;;;2.20;;
60492;SDS011;46341;51.290;-2.474;2023-02-15T16:41:42;2.35;;;2.15;;
60492;SDS011;46341;51.290;-2.474;2023-02-15T16:44:16;2.95;;;2.35;;
60492;SDS011;46341;51.290;-2.474;2023-02-15T16:46:43;2.67;;;2.53;;
60492;SDS011;46341;51.290;-2.474;2023-02-15T16:49:22;2.88;;;2.60;;
60492;SDS011;46341;51.290;-2.474;2023-02-15T16:54:21;3.72;;;3.00;;
60492;SDS011;46341;51.290;-2.474;2023-02-15T16:56:49;4.20;;;3.80;;
60492;SDS011;46341;51.290;-2.474;2023-02-15T16:59:20;4.72;;;4.30;;
60492;SDS011;46341;51.290;-2.474;2023-02-15T17:01:47;5.35;;;4.85;;
60492;SDS011;46341;51.290;-2.474;2023-02-15T17:06:59;4.47;;;4.07;;
60492;SDS011;46341;51.290;-2.474;2023-02-15T17:09:26;4.50;;;4.07;;
60492;SDS011;46341;51.290;-2.474;2023-02-15T17:11:53;6.00;;;5.35;;
60492;SDS011;46341;51.290;-2.474;2023-02-15T17:14:26;4.03;;;3.63;;
60492;SDS011;46341;51.290;-2.474;2023-02-15T17:16:54;7.57;;;5.20;;
60492;SDS011;46341;51.290;-2.474;2023-02-15T17:19:27;5.30;;;3.63;;
60492;SDS011;46341;51.290;-2.474;2023-02-15T17:21:55;7.38;;;4.20;;
60492;SDS011;46341;51.290;-2.474;2023-02-15T17:24:31;4.60;;;4.20;;
60492;SDS011;46341;51.290;-2.474;2023-02-15T17:27:00;6.20;;;4.38;;
60492;SDS011;46341;51.290;-2.474;2023-02-15T17:31:55;5.07;;;3.47;;
60492;SDS011;46341;51.290;-2.474;2023-02-15T17:39:54;7.05;;;4.65;;
60492;SDS011;46341;51.290;-2.474;2023-02-15T17:42:21;8.02;;;4.35;;
60492;SDS011;46341;51.290;-2.474;2023-02-15T17:44:48;6.28;;;4.45;;
60492;SDS011;46341;51.290;-2.474;2023-02-15T17:47:15;6.20;;;4.68;;